createdAt,value
2023-05-19T00:00:30.965Z,102621.56
2023-05-19T00:01:03.090Z,102624.59
2023-05-19T00:01:37.662Z,102617.28
2023-05-19T00:02:09.789Z,102621.38
2023-05-19T00:02:46.562Z,102621.44
2023-05-19T00:03:21.927Z,102623.19
2023-05-19T00:04:04.873Z,102620.25
2023-05-19T00:04:37.115Z,102622.91
2023-05-19T00:05:10.463Z,102621.50
2023-05-19T00:05:45.806Z,102619.38
2023-05-19T00:06:19.362Z,102620.44
2023-05-19T00:06:51.721Z,102615.97
2023-05-19T00:07:26.031Z,102620.44
2023-05-19T00:08:00.650Z,102618.03
2023-05-19T00:08:42.032Z,102615.28
2023-05-19T00:09:14.662Z,102616.97
2023-05-19T00:09:47.871Z,102615.16
2023-05-19T00:10:20.009Z,102622.59
2023-05-19T00:10:52.103Z,102618.28
2023-05-19T00:11:24.632Z,102617.31
2023-05-19T00:12:01.156Z,102617.59
2023-05-19T00:12:35.027Z,102608.09
2023-05-19T00:13:07.046Z,102610.84
2023-05-19T00:13:38.736Z,102615.47
2023-05-19T00:14:10.740Z,102617.13
2023-05-19T00:14:42.518Z,102616.66
2023-05-19T00:15:14.713Z,102622.63
2023-05-19T00:15:46.867Z,102612.88
2023-05-19T00:16:18.839Z,102615.84
2023-05-19T00:16:50.852Z,102610.53
2023-05-19T00:17:22.666Z,102611.75
2023-05-19T00:17:55.549Z,102607.75
2023-05-19T00:18:29.759Z,102611.63
2023-05-19T00:19:07.062Z,102609.09
2023-05-19T00:19:39.520Z,102611.63
2023-05-19T00:20:12.118Z,102612.44
2023-05-19T00:20:44.038Z,102610.94
2023-05-19T00:21:16.228Z,102609.16
2023-05-19T00:21:47.973Z,102610.44
2023-05-19T00:22:19.725Z,102611.81
2023-05-19T00:22:51.405Z,102611.53
2023-05-19T00:23:23.042Z,102612.13
2023-05-19T00:23:55.085Z,102608.78
2023-05-19T00:24:26.742Z,102611.47
2023-05-19T00:24:58.315Z,102610.84
2023-05-19T00:25:29.885Z,102609.16
2023-05-19T00:26:01.477Z,102613.69
2023-05-19T00:26:33.353Z,102605.56
2023-05-19T00:27:11.832Z,102616.97
2023-05-19T00:27:43.834Z,102614.97
2023-05-19T00:28:15.582Z,102621.38
2023-05-19T00:28:47.174Z,102621.94
2023-05-19T00:29:19.188Z,102615.53
2023-05-19T00:29:51.242Z,102616.34
2023-05-19T00:30:23.022Z,102611.34
2023-05-19T00:30:54.894Z,102606.19
2023-05-19T00:31:26.683Z,102612.34
2023-05-19T00:31:58.365Z,102613.03
2023-05-19T00:32:30.080Z,102615.22
2023-05-19T00:33:01.774Z,102610.44
2023-05-19T00:33:34.200Z,102609.38
2023-05-19T00:34:06.659Z,102608.00
2023-05-19T00:34:38.413Z,102611.34
2023-05-19T00:35:10.238Z,102610.44
2023-05-19T00:35:42.013Z,102607.94
2023-05-19T00:36:13.812Z,102611.63
2023-05-19T00:36:45.498Z,102607.75
2023-05-19T00:37:18.905Z,102607.28
2023-05-19T00:37:50.612Z,102610.84
2023-05-19T00:38:22.419Z,102608.59
2023-05-19T00:38:54.289Z,102603.41
2023-05-19T00:39:25.886Z,102599.66
2023-05-19T00:40:05.205Z,102609.78
2023-05-19T00:40:36.878Z,102602.81
2023-05-19T00:41:08.589Z,102602.13
2023-05-19T00:41:40.404Z,102602.31
2023-05-19T00:42:12.052Z,102600.88
2023-05-19T00:42:43.605Z,102595.25
2023-05-19T00:43:16.159Z,102602.75
2023-05-19T00:43:47.861Z,102601.16
2023-05-19T00:44:19.501Z,102614.00
2023-05-19T00:44:51.193Z,102597.66
2023-05-19T00:45:22.978Z,102602.31
2023-05-19T00:45:57.969Z,102602.97
2023-05-19T00:46:30.757Z,102607.13
2023-05-19T00:47:02.688Z,102609.25
2023-05-19T00:47:34.754Z,102606.38
2023-05-19T00:48:06.486Z,102603.25
2023-05-19T00:48:38.169Z,102603.78
2023-05-19T00:49:11.976Z,102602.00
2023-05-19T00:49:45.561Z,102606.44
2023-05-19T00:50:17.173Z,102603.59
2023-05-19T00:50:50.555Z,102613.16
2023-05-19T00:51:23.009Z,102602.00
2023-05-19T00:51:55.768Z,102600.69
2023-05-19T00:52:27.651Z,102610.19
2023-05-19T00:52:59.436Z,102598.50
2023-05-19T00:53:32.811Z,102610.50
2023-05-19T00:54:06.232Z,102605.50
2023-05-19T00:54:38.004Z,102604.28
2023-05-19T00:55:13.897Z,102602.41
2023-05-19T00:55:47.523Z,102601.22
2023-05-19T00:56:19.162Z,102602.31
2023-05-19T00:56:50.845Z,102602.81
2023-05-19T00:57:30.970Z,102604.34
2023-05-19T00:58:04.793Z,102600.09
2023-05-19T00:58:36.946Z,102597.22
2023-05-19T00:59:08.662Z,102598.22
2023-05-19T00:59:41.094Z,102601.31
2023-05-19T01:00:13.789Z,102592.59
2023-05-19T01:00:45.886Z,102597.91
2023-05-19T01:01:17.798Z,102591.72
2023-05-19T01:01:49.852Z,102592.81
2023-05-19T01:02:22.245Z,102592.09
2023-05-19T01:02:54.304Z,102586.53
2023-05-19T01:03:26.132Z,102591.53
2023-05-19T01:03:59.068Z,102587.59
2023-05-19T01:04:34.965Z,102590.84
2023-05-19T01:05:07.042Z,102582.38
2023-05-19T01:05:42.342Z,102590.72
2023-05-19T01:06:15.069Z,102580.41
2023-05-19T01:06:48.632Z,102582.59
2023-05-19T01:07:21.203Z,102592.09
2023-05-19T01:07:55.512Z,102592.00
2023-05-19T01:08:28.370Z,102597.31
2023-05-19T01:09:00.069Z,102588.38
2023-05-19T01:09:32.292Z,102592.53
2023-05-19T01:10:06.910Z,102584.59
2023-05-19T01:10:38.614Z,102589.47
2023-05-19T01:11:10.806Z,102592.25
2023-05-19T01:11:42.644Z,102591.72
2023-05-19T01:12:14.914Z,102586.41
2023-05-19T01:12:47.221Z,102591.56
2023-05-19T01:13:18.941Z,102595.34
2023-05-19T01:13:50.700Z,102591.19
2023-05-19T01:14:22.740Z,102589.81
2023-05-19T01:14:54.410Z,102587.84
2023-05-19T01:15:27.207Z,102587.56
2023-05-19T01:16:06.984Z,102590.88
2023-05-19T01:16:43.855Z,102583.97
2023-05-19T01:17:34.998Z,102582.00
2023-05-19T01:18:14.970Z,102582.31
2023-05-19T01:19:10.935Z,102587.00
2023-05-19T01:19:56.302Z,102592.00
2023-05-19T01:20:35.085Z,102588.38
2023-05-19T01:21:23.618Z,102593.97
2023-05-19T01:22:16.574Z,102587.31
2023-05-19T01:23:14.989Z,102590.94
2023-05-19T01:23:54.171Z,102595.25
2023-05-19T01:24:39.880Z,102592.66
2023-05-19T01:25:39.248Z,102595.44
2023-05-19T01:26:46.401Z,102585.13
2023-05-19T01:27:49.956Z,102589.88
2023-05-19T01:28:57.068Z,102590.72
2023-05-19T01:29:56.062Z,102589.88
2023-05-19T01:30:45.815Z,102594.09
2023-05-19T01:31:18.544Z,102588.94
2023-05-19T01:31:54.709Z,102587.28
2023-05-19T01:32:27.159Z,102590.50
2023-05-19T01:33:07.293Z,102593.53
2023-05-19T01:33:40.504Z,102598.53
2023-05-19T01:34:13.329Z,102597.06
2023-05-19T01:34:46.486Z,102592.47
2023-05-19T01:35:18.444Z,102596.38
2023-05-19T01:35:51.294Z,102594.81
2023-05-19T01:36:23.580Z,102592.19
2023-05-19T01:36:56.071Z,102593.97
2023-05-19T01:37:28.646Z,102588.84
2023-05-19T01:38:01.352Z,102598.59
2023-05-19T01:38:38.357Z,102594.13
2023-05-19T01:39:09.947Z,102592.75
2023-05-19T01:39:42.637Z,102590.53
2023-05-19T01:40:14.510Z,102598.03
2023-05-19T01:40:47.372Z,102597.19
2023-05-19T01:41:21.827Z,102590.25
2023-05-19T01:41:54.070Z,102595.25
2023-05-19T01:42:26.532Z,102592.59
2023-05-19T01:42:59.647Z,102597.91
2023-05-19T01:43:31.716Z,102593.59
2023-05-19T01:44:03.490Z,102589.56
2023-05-19T01:44:35.505Z,102589.81
2023-05-19T01:45:10.862Z,102600.00
2023-05-19T01:45:42.798Z,102596.09
2023-05-19T01:46:14.966Z,102592.06
2023-05-19T01:46:47.359Z,102594.41
2023-05-19T01:47:19.260Z,102592.75
2023-05-19T01:47:56.771Z,102592.47
2023-05-19T01:48:29.917Z,102597.91
2023-05-19T01:49:02.962Z,102592.47
2023-05-19T01:49:35.031Z,102593.19
2023-05-19T01:50:07.412Z,102586.78
2023-05-19T01:50:39.726Z,102594.13
2023-05-19T01:51:14.895Z,102596.78
2023-05-19T01:51:49.512Z,102596.53
2023-05-19T01:52:21.170Z,102586.91
2023-05-19T01:52:54.391Z,102590.97
2023-05-19T01:53:26.488Z,102595.28
2023-05-19T01:53:58.177Z,102598.06
2023-05-19T01:54:29.799Z,102589.16
2023-05-19T01:55:01.549Z,102586.94
2023-05-19T01:55:34.633Z,102585.56
2023-05-19T01:56:07.351Z,102586.66
2023-05-19T01:57:00.757Z,102582.75
2023-05-19T01:57:51.670Z,102586.06
2023-05-19T01:58:42.045Z,102586.63
2023-05-19T01:59:27.299Z,102586.50
2023-05-19T02:00:09.419Z,102586.91
2023-05-19T02:01:03.929Z,102589.56
2023-05-19T02:01:50.620Z,102590.53
2023-05-19T02:02:30.322Z,102584.41
2023-05-19T02:03:08.253Z,102582.31
2023-05-19T02:03:50.092Z,102586.06
2023-05-19T02:04:39.873Z,102580.25
2023-05-19T02:05:31.440Z,102578.56
2023-05-19T02:06:40.776Z,102580.97
2023-05-19T02:07:23.516Z,102583.59
2023-05-19T02:08:22.754Z,102582.34
2023-05-19T02:09:00.781Z,102591.81
2023-05-19T02:09:41.632Z,102584.16
2023-05-19T02:10:34.583Z,102580.28
2023-05-19T02:11:40.627Z,102583.19
2023-05-19T02:12:25.459Z,102579.41
2023-05-19T02:12:59.384Z,102580.66
2023-05-19T02:13:34.333Z,102581.50
2023-05-19T02:14:16.068Z,102576.50
2023-05-19T02:15:05.205Z,102587.19
2023-05-19T02:15:44.862Z,102577.78
2023-05-19T02:16:17.595Z,102579.28
2023-05-19T02:16:49.454Z,102581.09
2023-05-19T02:17:22.821Z,102577.50
2023-05-19T02:17:55.805Z,102581.09
2023-05-19T02:18:30.052Z,102577.88
2023-05-19T02:19:01.785Z,102570.78
2023-05-19T02:19:41.036Z,102573.44
2023-05-19T02:20:13.205Z,102575.25
2023-05-19T02:20:44.808Z,102573.44
2023-05-19T02:21:16.645Z,102571.63
2023-05-19T02:21:49.960Z,102570.38
2023-05-19T02:22:21.589Z,102569.81
2023-05-19T02:22:53.207Z,102568.00
2023-05-19T02:23:25.098Z,102567.47
2023-05-19T02:23:56.699Z,102564.97
2023-05-19T02:24:28.270Z,102564.97
2023-05-19T02:25:00.411Z,102572.75
2023-05-19T02:25:32.215Z,102564.97
2023-05-19T02:26:04.788Z,102563.84
2023-05-19T02:26:38.246Z,102567.75
2023-05-19T02:27:09.834Z,102561.47
2023-05-19T02:27:41.780Z,102558.84
2023-05-19T02:28:13.377Z,102566.63
2023-05-19T02:28:44.998Z,102568.56
2023-05-19T02:29:16.707Z,102566.63
2023-05-19T02:29:48.279Z,102560.38
2023-05-19T02:30:19.969Z,102563.28
2023-05-19T02:30:51.560Z,102570.38
2023-05-19T02:31:23.261Z,102560.78
2023-05-19T02:31:55.059Z,102564.53
2023-05-19T02:32:26.831Z,102567.72
2023-05-19T02:32:58.711Z,102563.00
2023-05-19T02:33:30.438Z,102570.53
2023-05-19T02:34:02.063Z,102569.69
2023-05-19T02:34:34.831Z,102563.84
2023-05-19T02:35:09.397Z,102564.09
2023-05-19T02:35:41.265Z,102561.91
2023-05-19T02:36:14.539Z,102559.97
2023-05-19T02:36:49.915Z,102563.25
2023-05-19T02:37:23.870Z,102561.22
2023-05-19T02:37:55.474Z,102566.34
2023-05-19T02:38:27.458Z,102559.13
2023-05-19T02:39:00.926Z,102564.13
2023-05-19T02:39:35.201Z,102561.75
2023-05-19T02:40:07.652Z,102553.56
2023-05-19T02:40:39.301Z,102565.13
2023-05-19T02:41:11.437Z,102562.63
2023-05-19T02:41:45.233Z,102563.59
2023-05-19T02:42:18.461Z,102555.78
2023-05-19T02:42:50.361Z,102565.53
2023-05-19T02:43:22.105Z,102562.03
2023-05-19T02:43:53.940Z,102561.34
2023-05-19T02:44:25.600Z,102561.19
2023-05-19T02:44:57.210Z,102562.19
2023-05-19T02:45:29.291Z,102565.81
2023-05-19T02:46:02.392Z,102562.72
2023-05-19T02:46:34.645Z,102565.38
2023-05-19T02:47:06.375Z,102565.25
2023-05-19T02:47:38.423Z,102567.06
2023-05-19T02:48:11.311Z,102576.09
2023-05-19T02:48:42.956Z,102565.22
2023-05-19T02:49:14.726Z,102563.16
2023-05-19T02:49:46.402Z,102562.72
2023-05-19T02:50:18.250Z,102561.75
2023-05-19T02:50:49.859Z,102558.16
2023-05-19T02:51:21.583Z,102559.13
2023-05-19T02:51:53.595Z,102559.97
2023-05-19T02:52:25.188Z,102561.22
2023-05-19T02:52:56.857Z,102561.91
2023-05-19T02:53:34.672Z,102559.38
2023-05-19T02:54:06.414Z,102563.28
2023-05-19T02:54:38.022Z,102566.63
2023-05-19T02:55:09.974Z,102559.13
2023-05-19T02:55:42.371Z,102558.41
2023-05-19T02:56:14.134Z,102559.69
2023-05-19T02:56:47.776Z,102559.25
2023-05-19T02:57:19.485Z,102556.91
2023-05-19T02:57:51.192Z,102556.91
2023-05-19T02:58:23.018Z,102555.38
2023-05-19T02:58:54.686Z,102565.66
2023-05-19T02:59:26.366Z,102559.81
2023-05-19T02:59:58.023Z,102563.72
2023-05-19T03:00:29.692Z,102566.63
2023-05-19T03:01:01.402Z,102558.56
2023-05-19T03:01:33.790Z,102558.84
2023-05-19T03:02:05.661Z,102553.28
2023-05-19T03:02:37.687Z,102563.00
2023-05-19T03:03:10.655Z,102564.69
2023-05-19T03:03:44.547Z,102562.72
2023-05-19T03:04:16.217Z,102562.47
2023-05-19T03:04:47.886Z,102556.06
2023-05-19T03:05:20.214Z,102554.66
2023-05-19T03:05:51.967Z,102558.00
2023-05-19T03:06:25.446Z,102555.06
2023-05-19T03:06:57.843Z,102561.63
2023-05-19T03:07:30.400Z,102551.34
2023-05-19T03:08:02.083Z,102558.28
2023-05-19T03:08:33.747Z,102559.41
2023-05-19T03:09:05.975Z,102550.06
2023-05-19T03:09:37.938Z,102554.94
2023-05-19T03:10:09.750Z,102555.22
2023-05-19T03:10:41.510Z,102546.31
2023-05-19T03:11:16.972Z,102548.81
2023-05-19T03:11:48.656Z,102549.09
2023-05-19T03:12:20.805Z,102546.88
2023-05-19T03:12:52.489Z,102552.44
2023-05-19T03:13:24.075Z,102551.59
2023-05-19T03:13:55.961Z,102548.56
2023-05-19T03:14:28.352Z,102554.09
2023-05-19T03:15:00.517Z,102548.28
2023-05-19T03:15:32.499Z,102555.38
2023-05-19T03:16:04.263Z,102554.38
2023-05-19T03:16:36.364Z,102548.56
2023-05-19T03:17:08.452Z,102557.19
2023-05-19T03:17:40.848Z,102558.84
2023-05-19T03:18:12.764Z,102558.00
2023-05-19T03:18:44.615Z,102553.00
2023-05-19T03:19:16.779Z,102555.63
2023-05-19T03:19:48.475Z,102563.56
2023-05-19T03:20:20.612Z,102554.69
2023-05-19T03:20:54.071Z,102550.78
2023-05-19T03:21:26.530Z,102556.91
2023-05-19T03:21:58.292Z,102549.81
2023-05-19T03:22:30.008Z,102555.63
2023-05-19T03:23:01.629Z,102553.84
2023-05-19T03:23:33.679Z,102549.94
2023-05-19T03:24:05.588Z,102550.22
2023-05-19T03:24:38.144Z,102555.53
2023-05-19T03:25:10.297Z,102554.78
2023-05-19T03:25:42.021Z,102556.06
2023-05-19T03:26:13.736Z,102553.28
2023-05-19T03:26:45.955Z,102561.91
2023-05-19T03:27:17.534Z,102556.06
2023-05-19T03:27:49.209Z,102559.81
2023-05-19T03:28:20.867Z,102562.47
2023-05-19T03:28:52.705Z,102553.56
2023-05-19T03:29:24.692Z,102559.41
2023-05-19T03:29:56.649Z,102558.44
2023-05-19T03:30:28.671Z,102555.81
2023-05-19T03:31:11.422Z,102558.13
2023-05-19T03:31:43.770Z,102552.16
2023-05-19T03:32:15.878Z,102554.25
2023-05-19T03:32:47.859Z,102561.75
2023-05-19T03:33:20.051Z,102556.34
2023-05-19T03:33:52.140Z,102560.94
2023-05-19T03:34:24.367Z,102552.44
2023-05-19T03:34:56.161Z,102553.84
2023-05-19T03:35:28.927Z,102563.03
2023-05-19T03:36:04.137Z,102556.63
2023-05-19T03:36:40.192Z,102559.53
2023-05-19T03:37:17.232Z,102560.69
2023-05-19T03:37:48.972Z,102557.72
2023-05-19T03:38:23.725Z,102556.06
2023-05-19T03:39:00.946Z,102559.69
2023-05-19T03:39:33.025Z,102561.47
2023-05-19T03:40:05.842Z,102560.22
2023-05-19T03:40:39.038Z,102562.31
2023-05-19T03:41:14.775Z,102563.03
2023-05-19T03:41:46.571Z,102567.19
2023-05-19T03:42:18.301Z,102560.41
2023-05-19T03:42:49.901Z,102567.88
2023-05-19T03:43:21.633Z,102563.84
2023-05-19T03:43:59.005Z,102566.63
2023-05-19T03:44:30.769Z,102567.47
2023-05-19T03:45:12.092Z,102567.19
2023-05-19T03:45:44.533Z,102564.28
2023-05-19T03:46:48.774Z,102567.63
2023-05-19T03:47:38.977Z,102561.50
2023-05-19T03:48:26.962Z,102561.91
2023-05-19T03:49:28.103Z,102564.13
2023-05-19T03:50:02.588Z,102570.09
2023-05-19T03:50:52.972Z,102558.16
2023-05-19T03:51:30.405Z,102571.66
2023-05-19T03:52:09.916Z,102562.19
2023-05-19T03:52:53.765Z,102561.34
2023-05-19T03:53:33.055Z,102562.16
2023-05-19T03:54:04.836Z,102561.31
2023-05-19T03:54:36.674Z,102567.84
2023-05-19T03:55:09.939Z,102563.81
2023-05-19T03:55:41.658Z,102566.88
2023-05-19T03:56:13.995Z,102564.34
2023-05-19T03:56:46.054Z,102565.75
2023-05-19T03:57:17.733Z,102550.59
2023-05-19T03:57:49.407Z,102563.66
2023-05-19T03:58:21.043Z,102561.59
2023-05-19T03:58:54.778Z,102563.53
2023-05-19T03:59:26.818Z,102563.56
2023-05-19T03:59:58.408Z,102559.38
2023-05-19T04:00:31.716Z,102561.91
2023-05-19T04:01:03.729Z,102564.13
2023-05-19T04:01:36.558Z,102561.88
2023-05-19T04:02:08.541Z,102562.47
2023-05-19T04:02:41.090Z,102567.75
2023-05-19T04:03:12.948Z,102561.34
2023-05-19T04:03:45.739Z,102561.63
2023-05-19T04:04:17.397Z,102559.66
2023-05-19T04:04:51.222Z,102559.38
2023-05-19T04:05:23.058Z,102565.22
2023-05-19T04:05:54.829Z,102564.63
2023-05-19T04:06:26.441Z,102561.19
2023-05-19T04:06:58.923Z,102559.09
2023-05-19T04:07:31.215Z,102563.25
2023-05-19T04:08:02.892Z,102562.38
2023-05-19T04:08:34.500Z,102558.81
2023-05-19T04:09:14.102Z,102562.94
2023-05-19T04:09:46.197Z,102560.41
2023-05-19T04:10:17.818Z,102562.22
2023-05-19T04:10:49.407Z,102571.31
2023-05-19T04:11:21.496Z,102562.00
2023-05-19T04:11:53.125Z,102569.63
2023-05-19T04:12:24.787Z,102562.38
2023-05-19T04:12:57.737Z,102557.94
2023-05-19T04:13:33.454Z,102566.69
2023-05-19T04:14:05.461Z,102561.78
2023-05-19T04:14:37.074Z,102563.16
2023-05-19T04:15:11.440Z,102567.88
2023-05-19T04:15:43.166Z,102564.53
2023-05-19T04:16:15.010Z,102568.56
2023-05-19T04:16:46.644Z,102573.16
2023-05-19T04:17:18.262Z,102574.06
2023-05-19T04:17:49.938Z,102571.56
2023-05-19T04:18:23.292Z,102571.44
2023-05-19T04:18:54.900Z,102572.13
2023-05-19T04:19:26.623Z,102568.28
2023-05-19T04:20:00.177Z,102567.75
2023-05-19T04:20:33.489Z,102576.09
2023-05-19T04:21:05.785Z,102573.56
2023-05-19T04:21:37.345Z,102574.22
2023-05-19T04:22:09.594Z,102570.81
2023-05-19T04:22:41.511Z,102569.31
2023-05-19T04:23:13.149Z,102566.50
2023-05-19T04:23:44.758Z,102576.81
2023-05-19T04:24:16.344Z,102572.19
2023-05-19T04:24:48.932Z,102572.78
2023-05-19T04:25:20.536Z,102572.59
2023-05-19T04:25:52.265Z,102577.59
2023-05-19T04:26:25.034Z,102577.91
2023-05-19T04:26:56.759Z,102575.94
2023-05-19T04:27:30.056Z,102576.91
2023-05-19T04:28:03.254Z,102573.28
2023-05-19T04:28:39.018Z,102572.97
2023-05-19T04:29:10.810Z,102575.19
2023-05-19T04:29:43.139Z,102577.38
2023-05-19T04:30:22.065Z,102577.22
2023-05-19T04:30:53.877Z,102577.44
2023-05-19T04:31:27.475Z,102582.28
2023-05-19T04:32:00.946Z,102578.53
2023-05-19T04:32:33.064Z,102583.28
2023-05-19T04:33:05.396Z,102569.91
2023-05-19T04:33:37.579Z,102580.88
2023-05-19T04:34:10.036Z,102577.16
2023-05-19T04:34:45.333Z,102578.53
2023-05-19T04:35:22.514Z,102582.28
2023-05-19T04:35:54.912Z,102581.88
2023-05-19T04:36:26.621Z,102574.91
2023-05-19T04:36:59.214Z,102572.94
2023-05-19T04:37:31.182Z,102581.56
2023-05-19T04:38:03.792Z,102576.63
2023-05-19T04:38:39.891Z,102575.81
2023-05-19T04:39:14.468Z,102573.97
2023-05-19T04:39:49.640Z,102577.22
2023-05-19T04:40:23.748Z,102580.50
2023-05-19T04:40:56.899Z,102574.56
2023-05-19T04:41:28.939Z,102570.31
2023-05-19T04:42:02.641Z,102565.63
2023-05-19T04:42:34.876Z,102572.28
2023-05-19T04:43:09.461Z,102578.41
2023-05-19T04:43:44.528Z,102575.28
2023-05-19T04:44:18.465Z,102572.38
2023-05-19T04:44:52.491Z,102571.38
2023-05-19T04:45:28.380Z,102576.06
2023-05-19T04:46:06.392Z,102571.38
2023-05-19T04:46:38.216Z,102568.72
2023-05-19T04:47:11.261Z,102572.22
2023-05-19T04:47:43.310Z,102568.00
2023-05-19T04:48:15.318Z,102570.53
2023-05-19T04:48:47.651Z,102573.19
2023-05-19T04:49:19.479Z,102569.72
2023-05-19T04:49:55.517Z,102568.63
2023-05-19T04:50:28.642Z,102570.09
2023-05-19T04:51:01.882Z,102575.28
2023-05-19T04:51:33.634Z,102576.97
2023-05-19T04:52:07.783Z,102571.38
2023-05-19T04:52:41.792Z,102577.78
2023-05-19T04:53:13.426Z,102577.72
2023-05-19T04:53:45.334Z,102576.56
2023-05-19T04:54:18.665Z,102566.28
2023-05-19T04:54:51.066Z,102572.88
2023-05-19T04:55:23.054Z,102568.78
2023-05-19T04:55:55.526Z,102574.53
2023-05-19T04:56:28.902Z,102574.38
2023-05-19T04:57:01.116Z,102576.38
2023-05-19T04:57:34.730Z,102571.06
2023-05-19T04:58:06.678Z,102576.94
2023-05-19T04:58:39.703Z,102572.78
2023-05-19T04:59:13.028Z,102570.78
2023-05-19T04:59:44.636Z,102568.97
2023-05-19T05:00:16.898Z,102575.59
2023-05-19T05:00:58.680Z,102565.13
2023-05-19T05:01:31.352Z,102572.09
2023-05-19T05:02:04.357Z,102570.28
2023-05-19T05:02:37.137Z,102569.81
2023-05-19T05:03:09.043Z,102570.31
2023-05-19T05:03:41.189Z,102564.03
2023-05-19T05:04:12.999Z,102571.22
2023-05-19T05:04:46.455Z,102569.94
2023-05-19T05:05:18.095Z,102569.94
2023-05-19T05:05:50.063Z,102566.28
2023-05-19T05:06:25.184Z,102564.94
2023-05-19T05:06:57.461Z,102562.94
2023-05-19T05:07:32.239Z,102561.28
2023-05-19T05:08:04.346Z,102563.78
2023-05-19T05:08:41.453Z,102571.13
2023-05-19T05:09:17.415Z,102560.03
2023-05-19T05:09:49.547Z,102560.19
2023-05-19T05:10:21.969Z,102565.69
2023-05-19T05:10:54.158Z,102562.25
2023-05-19T05:11:26.807Z,102570.41
2023-05-19T05:11:59.179Z,102557.53
2023-05-19T05:12:31.294Z,102566.16
2023-05-19T05:13:03.345Z,102561.50
2023-05-19T05:13:35.536Z,102565.50
2023-05-19T05:14:07.492Z,102562.38
2023-05-19T05:14:40.303Z,102565.91
2023-05-19T05:15:13.366Z,102565.25
2023-05-19T05:15:45.470Z,102563.28
2023-05-19T05:16:18.176Z,102562.44
2023-05-19T05:16:50.203Z,102560.81
2023-05-19T05:17:27.176Z,102555.00
2023-05-19T05:17:59.468Z,102561.69
2023-05-19T05:18:31.442Z,102561.34
2023-05-19T05:19:03.653Z,102560.03
2023-05-19T05:19:35.954Z,102562.34
2023-05-19T05:20:08.228Z,102561.19
2023-05-19T05:20:40.957Z,102563.34
2023-05-19T05:21:12.950Z,102568.34
2023-05-19T05:21:45.869Z,102565.53
2023-05-19T05:22:18.890Z,102560.38
2023-05-19T05:22:50.961Z,102564.00
2023-05-19T05:23:23.253Z,102563.19
2023-05-19T05:23:55.947Z,102567.69
2023-05-19T05:24:30.544Z,102560.38
2023-05-19T05:25:05.101Z,102562.41
2023-05-19T05:25:37.127Z,102562.72
2023-05-19T05:26:14.642Z,102563.56
2023-05-19T05:26:46.576Z,102566.72
2023-05-19T05:27:18.555Z,102565.72
2023-05-19T05:27:50.154Z,102563.72
2023-05-19T05:28:21.847Z,102565.22
2023-05-19T05:28:53.472Z,102567.06
2023-05-19T05:29:25.934Z,102569.88
2023-05-19T05:29:59.219Z,102566.72
2023-05-19T05:30:33.156Z,102568.06
2023-05-19T05:31:04.857Z,102562.06
2023-05-19T05:31:37.068Z,102557.94
2023-05-19T05:32:09.118Z,102562.06
2023-05-19T05:32:41.279Z,102568.38
2023-05-19T05:33:22.318Z,102561.38
2023-05-19T05:33:54.108Z,102557.72
2023-05-19T05:34:29.206Z,102563.34
2023-05-19T05:35:00.820Z,102567.69
2023-05-19T05:35:32.749Z,102558.31
2023-05-19T05:36:05.224Z,102560.31
2023-05-19T05:36:36.941Z,102564.34
2023-05-19T05:37:08.625Z,102559.31
2023-05-19T05:37:40.967Z,102568.59
2023-05-19T05:38:12.679Z,102555.28
2023-05-19T05:38:47.063Z,102559.50
2023-05-19T05:39:18.766Z,102557.75
2023-05-19T05:39:50.722Z,102555.28
2023-05-19T05:40:22.345Z,102556.03
2023-05-19T05:40:54.013Z,102553.28
2023-05-19T05:41:27.342Z,102554.88
2023-05-19T05:41:59.044Z,102549.09
2023-05-19T05:42:30.880Z,102541.88
2023-05-19T05:43:02.496Z,102551.50
2023-05-19T05:43:37.277Z,102550.38
2023-05-19T05:44:10.532Z,102546.47
2023-05-19T05:44:44.220Z,102548.78
2023-05-19T05:45:15.970Z,102550.19
2023-05-19T05:45:47.814Z,102546.38
2023-05-19T05:46:20.138Z,102547.31
2023-05-19T05:46:52.353Z,102547.75
2023-05-19T05:47:24.318Z,102546.03
2023-05-19T05:47:56.981Z,102547.84
2023-05-19T05:48:28.956Z,102539.19
2023-05-19T05:49:01.294Z,102539.88
2023-05-19T05:49:36.589Z,102542.97
2023-05-19T05:50:10.792Z,102548.50
2023-05-19T05:50:45.521Z,102544.56
2023-05-19T05:51:23.516Z,102550.78
2023-05-19T05:52:05.729Z,102545.38
2023-05-19T05:52:46.306Z,102540.72
2023-05-19T05:53:30.001Z,102542.31
2023-05-19T05:54:06.376Z,102531.63
2023-05-19T05:54:42.658Z,102540.47
2023-05-19T05:55:16.165Z,102545.00
2023-05-19T05:55:48.440Z,102541.19
2023-05-19T05:56:22.177Z,102549.50
2023-05-19T05:56:57.402Z,102550.06
2023-05-19T05:57:30.799Z,102548.22
2023-05-19T05:58:03.619Z,102556.06
2023-05-19T05:58:37.419Z,102542.19
2023-05-19T05:59:09.312Z,102549.41
2023-05-19T05:59:40.898Z,102554.38
2023-05-19T06:00:15.951Z,102549.03
2023-05-19T06:00:49.362Z,102550.69
2023-05-19T06:01:28.136Z,102556.50
2023-05-19T06:02:04.979Z,102555.16
2023-05-19T06:02:37.855Z,102560.13
2023-05-19T06:03:11.107Z,102555.31
2023-05-19T06:03:52.488Z,102552.63
2023-05-19T06:04:31.079Z,102558.09
2023-05-19T06:05:02.970Z,102543.47
2023-05-19T06:05:49.989Z,102553.53
2023-05-19T06:06:24.488Z,102547.88
2023-05-19T06:07:01.184Z,102546.63
2023-05-19T06:07:37.669Z,102556.94
2023-05-19T06:08:09.535Z,102551.19
2023-05-19T06:08:41.222Z,102552.72
2023-05-19T06:09:13.137Z,102552.25
2023-05-19T06:09:44.735Z,102547.50
2023-05-19T06:10:16.865Z,102542.44
2023-05-19T06:10:48.582Z,102543.38
2023-05-19T06:11:21.453Z,102546.38
2023-05-19T06:11:53.257Z,102545.75
2023-05-19T06:12:26.655Z,102544.31
2023-05-19T06:12:58.364Z,102551.38
2023-05-19T06:13:31.179Z,102546.38
2023-05-19T06:14:02.789Z,102550.75
2023-05-19T06:15:08.107Z,102542.72
2023-05-19T06:16:02.034Z,102543.13
2023-05-19T06:16:43.438Z,102537.38
2023-05-19T06:17:15.066Z,102548.28
2023-05-19T06:17:46.793Z,102542.31
2023-05-19T06:18:18.806Z,102546.47
2023-05-19T06:18:52.871Z,102547.66
2023-05-19T06:19:26.024Z,102544.28
2023-05-19T06:19:57.704Z,102545.50
2023-05-19T06:20:31.292Z,102542.84
2023-05-19T06:21:03.489Z,102544.66
2023-05-19T06:21:35.588Z,102545.41
2023-05-19T06:22:07.199Z,102533.53
2023-05-19T06:22:39.000Z,102538.19
2023-05-19T06:23:11.086Z,102534.66
2023-05-19T06:23:42.704Z,102532.22
2023-05-19T06:24:15.918Z,102535.78
2023-05-19T06:24:47.526Z,102530.31
2023-05-19T06:25:20.562Z,102542.63
2023-05-19T06:25:52.487Z,102533.09
2023-05-19T06:26:24.292Z,102545.53
2023-05-19T06:26:55.904Z,102539.69
2023-05-19T06:27:27.558Z,102551.91
2023-05-19T06:27:59.419Z,102546.34
2023-05-19T06:28:33.096Z,102543.56
2023-05-19T06:29:04.877Z,102532.44
2023-05-19T06:29:36.561Z,102534.38
2023-05-19T06:30:11.449Z,102535.09